sensor_id;sensor_type;location;lat;lon;timestamp;pressure;altitude;pressure_sealevel;temperature;humidity
21877;BME280;11103;43.788;23.710;2022-08-03T00:01:16;151827.06;;;21.49;86.04
21877;BME280;11103;43.788;23.710;2022-08-03T00:03:42;151925.28;;;21.87;86.42
21877;BME280;11103;43.788;23.710;2022-08-03T00:06:08;151920.09;;;21.85;86.87
21877;BME280;11103;43.788;23.710;2022-08-03T00:08:33;151886.47;;;21.72;86.38
21877;BME280;11103;43.788;23.710;2022-08-03T00:10:59;151894.22;;;21.75;86.70
21877;BME280;11103;43.788;23.710;2022-08-03T00:13:25;151886.47;;;21.72;88.32
21877;BME280;11103;43.788;23.710;2022-08-03T00:15:51;151883.91;;;21.71;88.03
21877;BME280;11103;43.788;23.710;2022-08-03T00:18:17;151880.00;;;21.69;87.84
21877;BME280;11103;43.788;23.710;2022-08-03T00:20:42;151837.38;;;21.53;87.87
21877;BME280;11103;43.788;23.710;2022-08-03T00:23:08;151852.88;;;21.59;88.77
21877;BME280;11103;43.788;23.710;2022-08-03T00:25:34;151836.13;;;21.52;91.69
21877;BME280;11103;43.788;23.710;2022-08-03T00:28:00;151816.72;;;21.45;93.97
21877;BME280;11103;43.788;23.710;2022-08-03T00:30:26;151825.78;;;21.48;95.99
21877;BME280;11103;43.788;23.710;2022-08-03T00:32:51;151811.56;;;21.43;97.10
21877;BME280;11103;43.788;23.710;2022-08-03T00:35:16;151790.91;;;21.34;97.97
21877;BME280;11103;43.788;23.710;2022-08-03T00:47:58;151816.72;;;21.45;100.00
21877;BME280;11103;43.788;23.710;2022-08-03T00:50:26;151814.16;;;21.44;100.00
21877;BME280;11103;43.788;23.710;2022-08-03T00:52:54;151798.66;;;21.38;100.00
21877;BME280;11103;43.788;23.710;2022-08-03T00:55:20;151803.81;;;21.40;100.00
21877;BME280;11103;43.788;23.710;2022-08-03T00:57:46;151815.47;;;21.44;100.00
21877;BME280;11103;43.788;23.710;2022-08-03T01:00:14;151785.75;;;21.32;100.00
21877;BME280;11103;43.788;23.710;2022-08-03T01:02:40;151780.59;;;21.30;100.00
21877;BME280;11103;43.788;23.710;2022-08-03T01:05:07;151793.50;;;21.35;100.00
21877;BME280;11103;43.788;23.710;2022-08-03T01:10:40;151768.94;;;21.26;100.00
21877;BME280;11103;43.788;23.710;2022-08-03T01:16:07;151788.31;;;21.33;100.00
21877;BME280;11103;43.788;23.710;2022-08-03T01:18:52;151796.06;;;21.36;100.00
21877;BME280;11103;43.788;23.710;2022-08-03T01:21:26;151721.19;;;21.07;100.00
21877;BME280;11103;43.788;23.710;2022-08-03T01:24:02;151790.91;;;21.34;100.00
21877;BME280;11103;43.788;23.710;2022-08-03T01:29:09;151775.41;;;21.28;100.00
21877;BME280;11103;43.788;23.710;2022-08-03T01:31:52;151767.63;;;21.25;100.00
21877;BME280;11103;43.788;23.710;2022-08-03T01:34:25;151767.63;;;21.25;100.00
21877;BME280;11103;43.788;23.710;2022-08-03T01:36:54;151753.44;;;21.20;100.00
21877;BME280;11103;43.788;23.710;2022-08-03T01:39:22;151746.97;;;21.17;100.00
21877;BME280;11103;43.788;23.710;2022-08-03T01:41:55;151754.72;;;21.20;100.00
21877;BME280;11103;43.788;23.710;2022-08-03T01:44:26;151732.78;;;21.12;100.00
21877;BME280;11103;43.788;23.710;2022-08-03T01:53:22;151731.53;;;21.11;100.00
21877;BME280;11103;43.788;23.710;2022-08-03T01:55:51;151709.53;;;21.03;100.00
21877;BME280;11103;43.788;23.710;2022-08-03T01:58:19;151690.16;;;20.95;100.00
21877;BME280;11103;43.788;23.710;2022-08-03T02:00:46;151710.81;;;21.03;100.00
21877;BME280;11103;43.788;23.710;2022-08-03T02:03:14;151734.06;;;21.12;100.00
21877;BME280;11103;43.788;23.710;2022-08-03T02:05:42;151736.69;;;21.13;100.00
21877;BME280;11103;43.788;23.710;2022-08-03T02:08:09;151710.81;;;21.03;100.00
21877;BME280;11103;43.788;23.710;2022-08-03T02:10:39;151710.81;;;21.03;100.00
21877;BME280;11103;43.788;23.710;2022-08-03T02:13:07;151647.56;;;20.78;100.00
21877;BME280;11103;43.788;23.710;2022-08-03T02:15:35;151669.50;;;20.87;100.00
21877;BME280;11103;43.788;23.710;2022-08-03T02:18:02;151682.41;;;20.92;100.00
21877;BME280;11103;43.788;23.710;2022-08-03T02:20:29;151637.22;;;20.74;100.00
21877;BME280;11103;43.788;23.710;2022-08-03T02:22:57;151672.06;;;20.88;100.00
21877;BME280;11103;43.788;23.710;2022-08-03T02:25:23;151666.91;;;20.86;100.00
21877;BME280;11103;43.788;23.710;2022-08-03T02:27:55;151619.16;;;20.67;100.00
21877;BME280;11103;43.788;23.710;2022-08-03T02:30:26;151590.75;;;20.56;100.00
21877;BME280;11103;43.788;23.710;2022-08-03T02:32:56;151614.03;;;20.65;100.00
21877;BME280;11103;43.788;23.710;2022-08-03T02:35:25;151611.41;;;20.64;100.00
21877;BME280;11103;43.788;23.710;2022-08-03T02:37:58;151637.22;;;20.74;100.00
21877;BME280;11103;43.788;23.710;2022-08-03T02:40:27;151571.41;;;20.49;100.00
21877;BME280;11103;43.788;23.710;2022-08-03T02:42:57;151423.00;;;19.91;100.00
21877;BME280;11103;43.788;23.710;2022-08-03T02:45:25;151601.06;;;20.60;100.00
21877;BME280;11103;43.788;23.710;2022-08-03T02:47:55;151586.88;;;20.55;100.00
21877;BME280;11103;43.788;23.710;2022-08-03T02:50:23;151602.38;;;20.61;100.00
21877;BME280;11103;43.788;23.710;2022-08-03T02:52:51;151592.06;;;20.57;100.00
21877;BME280;11103;43.788;23.710;2022-08-03T02:55:18;151552.03;;;20.41;100.00
21877;BME280;11103;43.788;23.710;2022-08-03T02:57:46;151583.03;;;20.53;100.00
21877;BME280;11103;43.788;23.710;2022-08-03T03:00:12;151527.53;;;20.32;100.00
21877;BME280;11103;43.788;23.710;2022-08-03T03:02:39;151526.22;;;20.31;100.00
21877;BME280;11103;43.788;23.710;2022-08-03T03:05:07;151558.47;;;20.44;100.00
21877;BME280;11103;43.788;23.710;2022-08-03T03:07:35;151488.75;;;20.16;100.00
21877;BME280;11103;43.788;23.710;2022-08-03T03:10:01;151550.78;;;20.41;100.00
21877;BME280;11103;43.788;23.710;2022-08-03T03:12:30;151553.31;;;20.42;100.00
21877;BME280;11103;43.788;23.710;2022-08-03T03:14:57;151506.84;;;20.24;100.00
21877;BME280;11103;43.788;23.710;2022-08-03T03:17:23;151496.50;;;20.19;100.00
21877;BME280;11103;43.788;23.710;2022-08-03T03:19:50;151502.94;;;20.22;100.00
21877;BME280;11103;43.788;23.710;2022-08-03T03:22:17;151545.56;;;20.39;100.00
21877;BME280;11103;43.788;23.710;2022-08-03T03:24:43;151543.03;;;20.38;100.00
21877;BME280;11103;43.788;23.710;2022-08-03T03:27:12;151562.38;;;20.45;100.00
21877;BME280;11103;43.788;23.710;2022-08-03T03:29:38;151528.84;;;20.32;100.00
21877;BME280;11103;43.788;23.710;2022-08-03T03:32:04;151530.13;;;20.33;100.00
21877;BME280;11103;43.788;23.710;2022-08-03T03:34:29;151514.63;;;20.27;100.00
21877;BME280;11103;43.788;23.710;2022-08-03T03:36:56;151549.47;;;20.40;100.00
21877;BME280;11103;43.788;23.710;2022-08-03T03:39:22;151557.22;;;20.43;100.00
21877;BME280;11103;43.788;23.710;2022-08-03T03:41:47;151563.66;;;20.46;100.00
21877;BME280;11103;43.788;23.710;2022-08-03T03:44:13;151570.13;;;20.48;100.00
21877;BME280;11103;43.788;23.710;2022-08-03T03:46:38;151553.31;;;20.42;100.00
21877;BME280;11103;43.788;23.710;2022-08-03T03:49:05;151559.78;;;20.44;100.00
21877;BME280;11103;43.788;23.710;2022-08-03T03:51:31;151541.72;;;20.37;100.00
21877;BME280;11103;43.788;23.710;2022-08-03T03:53:58;151602.38;;;20.61;100.00
21877;BME280;11103;43.788;23.710;2022-08-03T03:56:23;151612.72;;;20.65;100.00
21877;BME280;11103;43.788;23.710;2022-08-03T03:58:49;151615.25;;;20.66;100.00
21877;BME280;11103;43.788;23.710;2022-08-03T04:01:15;151588.16;;;20.55;100.00
21877;BME280;11103;43.788;23.710;2022-08-03T04:03:41;151632.06;;;20.72;100.00
21877;BME280;11103;43.788;23.710;2022-08-03T04:06:06;151615.25;;;20.66;100.00
21877;BME280;11103;43.788;23.710;2022-08-03T04:08:50;151652.72;;;20.81;100.00
21877;BME280;11103;43.788;23.710;2022-08-03T04:11:40;151691.41;;;20.96;100.00
21877;BME280;11103;43.788;23.710;2022-08-03T04:14:33;151696.63;;;20.98;100.00
21877;BME280;11103;43.788;23.710;2022-08-03T04:17:01;151669.50;;;20.87;100.00
21877;BME280;11103;43.788;23.710;2022-08-03T04:19:34;151666.91;;;20.86;100.00
21877;BME280;11103;43.788;23.710;2022-08-03T04:22:06;151695.31;;;20.97;100.00
21877;BME280;11103;43.788;23.710;2022-08-03T04:24:39;151776.69;;;21.29;100.00
21877;BME280;11103;43.788;23.710;2022-08-03T04:27:11;151790.91;;;21.34;100.00
21877;BME280;11103;43.788;23.710;2022-08-03T04:29:42;151785.75;;;21.32;100.00
21877;BME280;11103;43.788;23.710;2022-08-03T04:32:10;151799.94;;;21.38;100.00
21877;BME280;11103;43.788;23.710;2022-08-03T04:34:41;151820.63;;;21.46;100.00
21877;BME280;11103;43.788;23.710;2022-08-03T04:37:14;151642.38;;;20.76;100.00
21877;BME280;11103;43.788;23.710;2022-08-03T04:39:43;151837.38;;;21.53;100.00
21877;BME280;11103;43.788;23.710;2022-08-03T04:42:10;151821.91;;;21.47;100.00
21877;BME280;11103;43.788;23.710;2022-08-03T04:44:39;151855.47;;;21.60;100.00
21877;BME280;11103;43.788;23.710;2022-08-03T04:47:06;151846.44;;;21.56;100.00
21877;BME280;11103;43.788;23.710;2022-08-03T04:49:32;151873.56;;;21.67;100.00
21877;BME280;11103;43.788;23.710;2022-08-03T04:51:59;151891.66;;;21.74;100.00
21877;BME280;11103;43.788;23.710;2022-08-03T04:54:25;151913.59;;;21.82;100.00
21877;BME280;11103;43.788;23.710;2022-08-03T04:56:50;151953.72;;;21.98;100.00
21877;BME280;11103;43.788;23.710;2022-08-03T04:59:16;151948.50;;;21.96;100.00
21877;BME280;11103;43.788;23.710;2022-08-03T05:01:42;152001.50;;;22.17;100.00
21877;BME280;11103;43.788;23.710;2022-08-03T05:04:07;152027.34;;;22.27;100.00
21877;BME280;11103;43.788;23.710;2022-08-03T05:06:33;152007.97;;;22.19;100.00
21877;BME280;11103;43.788;23.710;2022-08-03T05:08:58;152029.94;;;22.28;100.00
21877;BME280;11103;43.788;23.710;2022-08-03T05:11:24;152084.22;;;22.49;100.00
21877;BME280;11103;43.788;23.710;2022-08-03T05:13:49;152090.69;;;22.51;100.00
21877;BME280;11103;43.788;23.710;2022-08-03T05:16:15;152067.41;;;22.42;100.00
21877;BME280;11103;43.788;23.710;2022-08-03T05:18:41;152035.09;;;22.30;100.00
21877;BME280;11103;43.788;23.710;2022-08-03T05:21:08;152129.47;;;22.67;100.00
21877;BME280;11103;43.788;23.710;2022-08-03T05:23:33;152318.31;;;23.40;100.00
21877;BME280;11103;43.788;23.710;2022-08-03T05:25:59;152515.03;;;24.17;100.00
21877;BME280;11103;43.788;23.710;2022-08-03T05:28:25;152701.44;;;24.90;96.20
21877;BME280;11103;43.788;23.710;2022-08-03T05:30:50;152739.03;;;25.04;90.83
21877;BME280;11103;43.788;23.710;2022-08-03T05:33:16;152955.38;;;25.88;88.76
21877;BME280;11103;43.788;23.710;2022-08-03T05:35:41;153169.28;;;26.72;80.60
21877;BME280;11103;43.788;23.710;2022-08-03T05:38:07;153343.16;;;27.39;69.45
21877;BME280;11103;43.788;23.710;2022-08-03T05:40:32;153553.44;;;28.21;66.27
21877;BME280;11103;43.788;23.710;2022-08-03T05:42:58;153588.50;;;28.34;69.53
21877;BME280;11103;43.788;23.710;2022-08-03T05:45:24;153387.28;;;27.56;67.71
21877;BME280;11103;43.788;23.710;2022-08-03T05:47:49;153168.03;;;26.71;71.04
21877;BME280;11103;43.788;23.710;2022-08-03T05:50:16;153155.06;;;26.66;78.96
21877;BME280;11103;43.788;23.710;2022-08-03T05:52:41;153030.59;;;26.18;74.94
21877;BME280;11103;43.788;23.710;2022-08-03T05:55:09;153051.31;;;26.26;75.91
21877;BME280;11103;43.788;23.710;2022-08-03T05:57:35;153008.50;;;26.09;75.58
21877;BME280;11103;43.788;23.710;2022-08-03T06:00:11;153056.56;;;26.28;78.17
21877;BME280;11103;43.788;23.710;2022-08-03T06:02:37;152991.69;;;26.02;86.20
21877;BME280;11103;43.788;23.710;2022-08-03T06:05:03;153021.56;;;26.14;79.06
21877;BME280;11103;43.788;23.710;2022-08-03T06:07:28;152986.50;;;26.00;75.79
21877;BME280;11103;43.788;23.710;2022-08-03T06:09:54;152952.78;;;25.87;76.41
21877;BME280;11103;43.788;23.710;2022-08-03T06:12:20;152924.31;;;25.76;74.44
21877;BME280;11103;43.788;23.710;2022-08-03T06:14:45;152943.75;;;25.84;72.70
21877;BME280;11103;43.788;23.710;2022-08-03T06:17:17;152911.31;;;25.71;75.75
21877;BME280;11103;43.788;23.710;2022-08-03T06:19:42;152916.53;;;25.73;83.59
21877;BME280;11103;43.788;23.710;2022-08-03T06:22:07;152994.28;;;26.03;78.58
21877;BME280;11103;43.788;23.710;2022-08-03T06:24:33;153012.41;;;26.11;84.75
21877;BME280;11103;43.788;23.710;2022-08-03T06:26:58;153035.81;;;26.20;80.22
21877;BME280;11103;43.788;23.710;2022-08-03T06:29:24;152981.28;;;25.98;76.20
21877;BME280;11103;43.788;23.710;2022-08-03T06:31:49;153082.47;;;26.38;82.64
21877;BME280;11103;43.788;23.710;2022-08-03T06:34:15;153095.41;;;26.43;82.43
21877;BME280;11103;43.788;23.710;2022-08-03T06:36:40;153088.94;;;26.40;79.13
21877;BME280;11103;43.788;23.710;2022-08-03T06:39:06;153074.69;;;26.35;82.00
21877;BME280;11103;43.788;23.710;2022-08-03T06:41:32;153077.28;;;26.36;77.83
21877;BME280;11103;43.788;23.710;2022-08-03T06:43:59;153046.16;;;26.24;79.51
21877;BME280;11103;43.788;23.710;2022-08-03T06:46:25;153069.50;;;26.33;79.33
21877;BME280;11103;43.788;23.710;2022-08-03T06:48:50;153092.81;;;26.42;74.77
21877;BME280;11103;43.788;23.710;2022-08-03T06:51:16;153104.50;;;26.46;73.99
21877;BME280;11103;43.788;23.710;2022-08-03T06:53:41;153103.19;;;26.46;75.21
21877;BME280;11103;43.788;23.710;2022-08-03T06:56:07;153136.91;;;26.59;72.40
21877;BME280;11103;43.788;23.710;2022-08-03T06:58:33;153230.31;;;26.95;77.96
21877;BME280;11103;43.788;23.710;2022-08-03T07:00:59;153269.19;;;27.10;72.86
21877;BME280;11103;43.788;23.710;2022-08-03T07:03:25;153299.03;;;27.22;71.97
21877;BME280;11103;43.788;23.710;2022-08-03T07:05:51;153235.50;;;26.97;72.61
21877;BME280;11103;43.788;23.710;2022-08-03T07:08:18;153309.38;;;27.26;69.64
21877;BME280;11103;43.788;23.710;2022-08-03T07:10:44;153340.53;;;27.38;71.23
21877;BME280;11103;43.788;23.710;2022-08-03T07:13:12;153388.59;;;27.57;71.64
21877;BME280;11103;43.788;23.710;2022-08-03T07:15:38;153360.03;;;27.46;68.07
21877;BME280;11103;43.788;23.710;2022-08-03T07:18:04;153421.00;;;27.69;67.54
21877;BME280;11103;43.788;23.710;2022-08-03T07:20:31;153493.69;;;27.98;65.71
21877;BME280;11103;43.788;23.710;2022-08-03T07:22:57;153530.06;;;28.12;66.46
21877;BME280;11103;43.788;23.710;2022-08-03T07:25:23;153506.69;;;28.03;61.86
21877;BME280;11103;43.788;23.710;2022-08-03T07:27:51;153506.69;;;28.03;60.32
21877;BME280;11103;43.788;23.710;2022-08-03T07:30:17;153540.44;;;28.16;61.26
21877;BME280;11103;43.788;23.710;2022-08-03T07:32:42;153456.03;;;27.83;59.34
21877;BME280;11103;43.788;23.710;2022-08-03T07:35:08;153489.81;;;27.96;58.67
21877;BME280;11103;43.788;23.710;2022-08-03T07:37:35;153556.00;;;28.22;60.33
21877;BME280;11103;43.788;23.710;2022-08-03T07:40:02;153566.44;;;28.26;58.42
21877;BME280;11103;43.788;23.710;2022-08-03T07:42:29;153570.28;;;28.27;57.30
21877;BME280;11103;43.788;23.710;2022-08-03T07:44:55;153578.09;;;28.30;57.59
21877;BME280;11103;43.788;23.710;2022-08-03T07:47:26;153531.38;;;28.12;55.98
21877;BME280;11103;43.788;23.710;2022-08-03T07:49:53;153566.44;;;28.26;55.34
21877;BME280;11103;43.788;23.710;2022-08-03T07:52:18;153581.97;;;28.32;56.77
21877;BME280;11103;43.788;23.710;2022-08-03T07:55:04;153659.91;;;28.62;53.21
21877;BME280;11103;43.788;23.710;2022-08-03T07:57:45;153623.53;;;28.48;52.52
21877;BME280;11103;43.788;23.710;2022-08-03T08:00:14;153711.84;;;28.82;51.85
21877;BME280;11103;43.788;23.710;2022-08-03T08:02:41;153736.50;;;28.92;52.89
21877;BME280;11103;43.788;23.710;2022-08-03T08:05:07;153783.28;;;29.10;51.14
21877;BME280;11103;43.788;23.710;2022-08-03T08:07:32;153796.28;;;29.15;52.29
21877;BME280;11103;43.788;23.710;2022-08-03T08:09:58;153771.56;;;29.06;51.08
21877;BME280;11103;43.788;23.710;2022-08-03T08:12:23;153798.84;;;29.16;50.69
21877;BME280;11103;43.788;23.710;2022-08-03T08:14:48;153780.69;;;29.09;50.73
21877;BME280;11103;43.788;23.710;2022-08-03T08:17:14;153827.47;;;29.27;50.93
21877;BME280;11103;43.788;23.710;2022-08-03T08:19:39;153837.88;;;29.31;48.79
21877;BME280;11103;43.788;23.710;2022-08-03T08:22:13;153904.09;;;29.57;49.23
21877;BME280;11103;43.788;23.710;2022-08-03T08:24:38;153930.13;;;29.67;50.13
21877;BME280;11103;43.788;23.710;2022-08-03T08:27:04;154014.63;;;30.00;49.28
21877;BME280;11103;43.788;23.710;2022-08-03T08:29:29;154054.91;;;30.16;48.44
21877;BME280;11103;43.788;23.710;2022-08-03T08:31:55;153986.03;;;29.89;46.93
21877;BME280;11103;43.788;23.710;2022-08-03T08:34:20;154067.91;;;30.21;46.27
21877;BME280;11103;43.788;23.710;2022-08-03T08:36:46;153954.78;;;29.77;46.52
21877;BME280;11103;43.788;23.710;2022-08-03T08:39:11;153992.53;;;29.91;46.62
21877;BME280;11103;43.788;23.710;2022-08-03T08:41:37;153979.56;;;29.86;48.00
21877;BME280;11103;43.788;23.710;2022-08-03T08:44:03;154083.50;;;30.27;47.90
21877;BME280;11103;43.788;23.710;2022-08-03T08:46:31;154183.66;;;30.65;47.57
21877;BME280;11103;43.788;23.710;2022-08-03T08:48:58;154235.66;;;30.86;47.05
21877;BME280;11103;43.788;23.710;2022-08-03T08:51:29;154252.63;;;30.92;45.58
21877;BME280;11103;43.788;23.710;2022-08-03T08:53:56;154158.94;;;30.56;44.76
21877;BME280;11103;43.788;23.710;2022-08-03T08:56:25;154173.25;;;30.61;44.93
21877;BME280;11103;43.788;23.710;2022-08-03T08:58:54;154121.22;;;30.41;44.84
21877;BME280;11103;43.788;23.710;2022-08-03T09:01:22;154099.13;;;30.33;45.66
21877;BME280;11103;43.788;23.710;2022-08-03T09:03:47;154108.22;;;30.36;46.97
21877;BME280;11103;43.788;23.710;2022-08-03T09:06:13;154118.66;;;30.40;46.02
21877;BME280;11103;43.788;23.710;2022-08-03T09:08:39;154056.22;;;30.16;44.38
21877;BME280;11103;43.788;23.710;2022-08-03T09:11:05;154144.63;;;30.50;44.94
21877;BME280;11103;43.788;23.710;2022-08-03T09:13:32;154144.63;;;30.50;43.95
21877;BME280;11103;43.788;23.710;2022-08-03T09:16:19;154149.81;;;30.52;45.84
21877;BME280;11103;43.788;23.710;2022-08-03T09:18:51;154174.53;;;30.62;45.35
21877;BME280;11103;43.788;23.710;2022-08-03T09:21:25;154188.84;;;30.67;43.67
21877;BME280;11103;43.788;23.710;2022-08-03T09:23:52;154218.75;;;30.79;44.16
21877;BME280;11103;43.788;23.710;2022-08-03T09:26:25;154265.59;;;30.97;45.03
21877;BME280;11103;43.788;23.710;2022-08-03T09:31:32;154225.25;;;30.82;43.12
21877;BME280;11103;43.788;23.710;2022-08-03T09:34:06;154246.06;;;30.90;42.80
21877;BME280;11103;43.788;23.710;2022-08-03T09:39:07;154253.94;;;30.93;44.61
21877;BME280;11103;43.788;23.710;2022-08-03T09:41:35;154256.50;;;30.94;43.42
21877;BME280;11103;43.788;23.710;2022-08-03T09:44:00;154303.28;;;31.12;42.15
21877;BME280;11103;43.788;23.710;2022-08-03T09:46:26;154346.22;;;31.29;46.08
21877;BME280;11103;43.788;23.710;2022-08-03T09:49:08;154376.16;;;31.40;45.61
21877;BME280;11103;43.788;23.710;2022-08-03T09:51:34;154441.25;;;31.65;43.17
21877;BME280;11103;43.788;23.710;2022-08-03T09:53:59;154425.63;;;31.59;41.40
21877;BME280;11103;43.788;23.710;2022-08-03T09:56:44;154395.69;;;31.48;41.97
21877;BME280;11103;43.788;23.710;2022-08-03T09:59:12;154377.47;;;31.41;42.21
21877;BME280;11103;43.788;23.710;2022-08-03T10:01:38;154276.00;;;31.01;40.83
21877;BME280;11103;43.788;23.710;2022-08-03T10:04:12;154289.03;;;31.06;42.77
21877;BME280;11103;43.788;23.710;2022-08-03T10:06:45;154331.91;;;31.23;41.53
21877;BME280;11103;43.788;23.710;2022-08-03T10:09:25;154359.25;;;31.34;42.35
21877;BME280;11103;43.788;23.710;2022-08-03T10:11:51;154376.16;;;31.40;41.11
21877;BME280;11103;43.788;23.710;2022-08-03T10:14:18;154398.31;;;31.49;40.50
21877;BME280;11103;43.788;23.710;2022-08-03T10:16:45;154348.84;;;31.30;41.29
21877;BME280;11103;43.788;23.710;2022-08-03T10:19:11;154404.81;;;31.51;51.14
21877;BME280;11103;43.788;23.710;2022-08-03T10:21:41;154378.75;;;31.41;48.84
21877;BME280;11103;43.788;23.710;2022-08-03T10:24:11;154420.44;;;31.57;40.80
21877;BME280;11103;43.788;23.710;2022-08-03T10:26:40;154426.94;;;31.60;43.36
21877;BME280;11103;43.788;23.710;2022-08-03T10:29:11;154501.06;;;31.89;41.53
21877;BME280;11103;43.788;23.710;2022-08-03T10:31:38;154508.88;;;31.92;48.69
21877;BME280;11103;43.788;23.710;2022-08-03T10:34:20;154558.38;;;32.11;46.90
21877;BME280;11103;43.788;23.710;2022-08-03T10:36:48;154558.38;;;32.11;47.04
21877;BME280;11103;43.788;23.710;2022-08-03T10:39:17;154667.81;;;32.53;38.40
21877;BME280;11103;43.788;23.710;2022-08-03T10:41:46;154644.31;;;32.44;44.29
21877;BME280;11103;43.788;23.710;2022-08-03T10:44:19;154738.09;;;32.80;36.92
21877;BME280;11103;43.788;23.710;2022-08-03T10:46:47;154761.50;;;32.89;47.00
21877;BME280;11103;43.788;23.710;2022-08-03T10:49:16;154797.97;;;33.04;41.24
21877;BME280;11103;43.788;23.710;2022-08-03T10:51:44;154771.94;;;32.93;37.18
21877;BME280;11103;43.788;23.710;2022-08-03T10:57:59;154566.22;;;32.14;35.74
21877;BME280;11103;43.788;23.710;2022-08-03T11:00:26;154584.41;;;32.21;40.94
21877;BME280;11103;43.788;23.710;2022-08-03T11:03:06;154704.22;;;32.67;44.08
21877;BME280;11103;43.788;23.710;2022-08-03T11:05:43;154790.16;;;33.01;39.66
21877;BME280;11103;43.788;23.710;2022-08-03T11:08:31;154843.56;;;33.21;45.73
21877;BME280;11103;43.788;23.710;2022-08-03T11:14:04;154949.13;;;33.62;37.14
21877;BME280;11103;43.788;23.710;2022-08-03T11:16:35;154979.09;;;33.74;35.36
21877;BME280;11103;43.788;23.710;2022-08-03T11:19:09;155002.56;;;33.83;48.79
21877;BME280;11103;43.788;23.710;2022-08-03T11:27:30;155016.91;;;33.88;44.66
21877;BME280;11103;43.788;23.710;2022-08-03T11:30:36;155027.28;;;33.92;38.24
21877;BME280;11103;43.788;23.710;2022-08-03T11:32:58;154897.00;;;33.42;35.87
21877;BME280;11103;43.788;23.710;2022-08-03T11:35:32;154916.53;;;33.49;35.83
21877;BME280;11103;43.788;23.710;2022-08-03T11:40:42;155037.75;;;33.96;42.82
21877;BME280;11103;43.788;23.710;2022-08-03T11:46:08;155123.81;;;34.30;42.83
21877;BME280;11103;43.788;23.710;2022-08-03T11:48:46;155104.22;;;34.22;37.99
21877;BME280;11103;43.788;23.710;2022-08-03T11:51:26;155166.78;;;34.46;42.67
21877;BME280;11103;43.788;23.710;2022-08-03T11:53:57;155076.84;;;34.11;36.62
21877;BME280;11103;43.788;23.710;2022-08-03T11:56:23;155139.41;;;34.36;34.98
21877;BME280;11103;43.788;23.710;2022-08-03T11:58:51;155135.53;;;34.34;35.56
21877;BME280;11103;43.788;23.710;2022-08-03T12:01:18;155215.09;;;34.65;37.13
21877;BME280;11103;43.788;23.710;2022-08-03T12:03:44;155155.06;;;34.42;37.00
21877;BME280;11103;43.788;23.710;2022-08-03T12:06:11;155165.50;;;34.46;38.29
21877;BME280;11103;43.788;23.710;2022-08-03T12:08:39;155282.84;;;34.91;35.48
21877;BME280;11103;43.788;23.710;2022-08-03T12:11:06;155383.31;;;35.30;37.06
21877;BME280;11103;43.788;23.710;2022-08-03T12:13:50;155232.00;;;34.72;31.30
21877;BME280;11103;43.788;23.710;2022-08-03T12:18:43;155114.66;;;34.26;33.87
21877;BME280;11103;43.788;23.710;2022-08-03T12:21:10;155040.31;;;33.97;33.98
21877;BME280;11103;43.788;23.710;2022-08-03T12:23:37;154960.88;;;33.67;34.58
21877;BME280;11103;43.788;23.710;2022-08-03T12:26:05;154898.31;;;33.42;33.78
21877;BME280;11103;43.788;23.710;2022-08-03T12:28:31;154865.72;;;33.30;34.53
21877;BME280;11103;43.788;23.710;2022-08-03T12:31:01;154838.38;;;33.19;34.46
21877;BME280;11103;43.788;23.710;2022-08-03T12:33:28;154818.84;;;33.12;34.42
21877;BME280;11103;43.788;23.710;2022-08-03T12:36:20;154777.13;;;32.95;36.54
21877;BME280;11103;43.788;23.710;2022-08-03T12:38:57;154753.69;;;32.86;36.96
21877;BME280;11103;43.788;23.710;2022-08-03T12:44:04;154771.94;;;32.93;41.28
21877;BME280;11103;43.788;23.710;2022-08-03T12:46:35;154822.75;;;33.13;46.90
21877;BME280;11103;43.788;23.710;2022-08-03T12:49:09;154839.69;;;33.20;35.93
21877;BME280;11103;43.788;23.710;2022-08-03T12:54:06;155088.63;;;34.16;37.08
21877;BME280;11103;43.788;23.710;2022-08-03T12:56:32;155139.41;;;34.36;33.20
21877;BME280;11103;43.788;23.710;2022-08-03T12:58:57;155216.34;;;34.65;32.75
21877;BME280;11103;43.788;23.710;2022-08-03T13:01:23;155332.47;;;35.10;31.22
21877;BME280;11103;43.788;23.710;2022-08-03T13:03:50;155478.56;;;35.67;29.58
21877;BME280;11103;43.788;23.710;2022-08-03T13:06:22;155492.91;;;35.72;31.63
21877;BME280;11103;43.788;23.710;2022-08-03T13:08:48;155623.44;;;36.23;35.10
21877;BME280;11103;43.788;23.710;2022-08-03T13:13:44;155964.25;;;37.54;30.88
21877;BME280;11103;43.788;23.710;2022-08-03T13:16:10;156028.25;;;37.79;32.76
21877;BME280;11103;43.788;23.710;2022-08-03T13:18:35;156145.81;;;38.25;35.98
21877;BME280;11103;43.788;23.710;2022-08-03T13:21:01;156057.03;;;37.90;25.18
21877;BME280;11103;43.788;23.710;2022-08-03T13:23:26;156064.88;;;37.93;30.12
21877;BME280;11103;43.788;23.710;2022-08-03T13:25:52;156066.19;;;37.94;30.51
21877;BME280;11103;43.788;23.710;2022-08-03T13:28:18;155959.03;;;37.52;27.10
21877;BME280;11103;43.788;23.710;2022-08-03T13:30:43;155784.00;;;36.85;28.29
21877;BME280;11103;43.788;23.710;2022-08-03T13:33:09;155671.72;;;36.41;28.13
21877;BME280;11103;43.788;23.710;2022-08-03T13:35:34;155520.28;;;35.83;28.34
21877;BME280;11103;43.788;23.710;2022-08-03T13:38:08;155376.81;;;35.28;30.07
21877;BME280;11103;43.788;23.710;2022-08-03T13:40:33;155282.84;;;34.91;29.60